Weather History for KPNM - November, 2012

Change the Weather History Date:

Thursday, November 1, 2012

  Actual Average Record
Temperature  
Mean Temperature 34 °F -  
Max Temperature 44 °F 45 °F 73 °F (2008)
Min Temperature 24 °F 29 °F 15 °F (1996)
Degree Days  
Heating Degree Days 31    
Moisture  
Dew Point 25 °F    
Average Humidity 66    
Maximum Humidity 86    
Minimum Humidity 42    
Precipitation  
Precipitation 0.00 in - - ()
Sea Level Pressure  
Sea Level Pressure 29.99 in    
Wind  
Wind Speed 6 mph (NW)    
Max Wind Speed 16 mph    
Max Gust Speed 22 mph    
Visibility 10 miles    
Events      
Averages and records for this station are not official NWS values.
T = Trace of Precipitation, MM = Missing Value Source: NWS Daily Summary

Daily Weather History Graph

Daily Weather History Graph

Search for Another Location

Airport or City:

Trip Planner

Search our weather history database for the weather conditions in past years. The results will help you decide how hot, cold, wet, or windy it might be!

Date:

Astronomy

Nov. 01, 2012 Rise Set
Actual Time 7:54 AM CDT 6:00 PM CDT
Civil Twilight 7:23 AM CDT 6:31 PM CDT
Nautical Twilight 6:48 AM CDT 7:06 PM CDT
Astronomical Twilight 6:14 AM CDT 7:41 PM CDT
Moon 7:51 PM CDT (11/1) 10:34 AM CDT (11/1)
Length of Visible Light 11h 07m
Length of Day
10h 05m
Waning Gibbous, 93% of the Moon is Illuminated
Nov 1
Waning Gibbous
Nov 6
Last Quarter
Nov 13
New
Nov 20
First Quarter
Nov 28
Full

Hourly Weather History & Observations

Time (CDT) Temp. Windchill Dew Point Humidity Pressure Visibility Wind Dir Wind Speed Gust Speed Precip Events Conditions
12:11 AM 33.8 °F - 26.6 °F 75% 29.92 in 10.0 mi Calm Calm - N/A   Mostly Cloudy
12:31 AM 32.0 °F - 26.6 °F 80% 29.92 in 10.0 mi Calm Calm - N/A   Clear
12:51 AM 32.0 °F - 26.6 °F 80% 29.92 in 10.0 mi Calm Calm - N/A   Clear
1:11 AM 30.2 °F - 24.8 °F 80% 29.92 in 10.0 mi Calm Calm - N/A   Clear
1:31 AM 28.4 °F - 24.8 °F 86% 29.92 in 10.0 mi Calm Calm - N/A   Clear
1:51 AM 30.2 °F - 24.8 °F 80% 29.93 in 10.0 mi Calm Calm - N/A   Clear
2:11 AM 30.2 °F - 24.8 °F 80% 29.93 in 10.0 mi Calm Calm - N/A   Clear
2:31 AM 30.2 °F - 24.8 °F 80% 29.93 in 10.0 mi Calm Calm - N/A   Mostly Cloudy
2:51 AM 30.2 °F - 26.6 °F 86% 29.93 in 10.0 mi Calm Calm - N/A   Mostly Cloudy
3:11 AM 32.0 °F 26.4 °F 26.6 °F 80% 29.93 in 10.0 mi WNW 5.8 mph - N/A   Scattered Clouds
3:31 AM 37.4 °F 32.8 °F 28.4 °F 70% 29.93 in 10.0 mi WNW 5.8 mph - N/A   Mostly Cloudy
3:51 AM 39.2 °F 33.6 °F 30.2 °F 70% 29.93 in 10.0 mi NW 8.1 mph - N/A   Overcast
4:11 AM 39.2 °F 33.0 °F 30.2 °F 70% 29.93 in 10.0 mi NW 9.2 mph - N/A   Overcast
4:31 AM 41.0 °F 35.8 °F 30.2 °F 65% 29.94 in 10.0 mi NW 8.1 mph - N/A   Overcast
4:52 AM 41.0 °F 35.8 °F 30.2 °F 65% 29.94 in 10.0 mi NW 8.1 mph - N/A   Overcast
5:11 AM 39.2 °F 34.2 °F 30.2 °F 70% 29.95 in 10.0 mi WNW 6.9 mph - N/A   Overcast
5:31 AM 39.2 °F 34.2 °F 30.2 °F 70% 29.95 in 10.0 mi NW 6.9 mph - N/A   Overcast
5:52 AM 39.2 °F 33.6 °F 30.2 °F 70% 29.96 in 10.0 mi NW 8.1 mph - N/A   Mostly Cloudy
6:11 AM 39.2 °F 32.5 °F 32.0 °F 75% 29.96 in 10.0 mi NNW 10.4 mph - N/A   Mostly Cloudy
6:31 AM 39.2 °F 34.2 °F 32.0 °F 75% 29.96 in 10.0 mi NW 6.9 mph - N/A   Mostly Cloudy
6:52 AM 39.2 °F 35.9 °F 33.8 °F 81% 29.97 in 10.0 mi NW 4.6 mph - N/A   Overcast
7:11 AM 39.2 °F 33.6 °F 32.0 °F 75% 29.97 in 10.0 mi NW 8.1 mph - N/A   Overcast
7:31 AM 39.2 °F 32.0 °F 32.0 °F 75% 29.97 in 10.0 mi WNW 11.5 mph - N/A   Overcast
7:51 AM 39.2 °F 31.2 °F 32.0 °F 75% 29.98 in 10.0 mi NW 13.8 mph 17.3 mph N/A   Overcast
8:11 AM 39.2 °F 31.6 °F 30.2 °F 70% 29.99 in 10.0 mi NW 12.7 mph - N/A   Overcast
8:32 AM 37.4 °F 32.1 °F 30.2 °F 75% 30.00 in 10.0 mi NW 6.9 mph - N/A   Overcast
8:51 AM 37.4 °F 30.8 °F 30.2 °F 75% 30.00 in 10.0 mi WNW 9.2 mph - N/A   Overcast
9:11 AM 37.4 °F 29.3 °F 28.4 °F 70% 30.00 in 10.0 mi NW 12.7 mph 17.3 mph N/A   Overcast
9:32 AM 39.2 °F 31.6 °F 28.4 °F 65% 30.01 in 10.0 mi NW 12.7 mph 17.3 mph N/A   Overcast
9:51 AM 39.2 °F 32.5 °F 28.4 °F 65% 30.01 in 10.0 mi NW 10.4 mph 17.3 mph N/A   Overcast
10:11 AM 39.2 °F 32.5 °F 28.4 °F 65% 30.01 in 10.0 mi NW 10.4 mph - N/A   Overcast
10:32 AM 39.2 °F 31.2 °F 26.6 °F 61% 30.01 in 10.0 mi NNW 13.8 mph 20.7 mph N/A   Overcast
10:51 AM 39.2 °F 32.0 °F 26.6 °F 61% 30.01 in 10.0 mi NW 11.5 mph 17.3 mph N/A   Overcast
11:11 AM 39.2 °F 32.0 °F 26.6 °F 61% 30.01 in 10.0 mi NW 11.5 mph - N/A   Overcast
11:32 AM 39.2 °F 31.6 °F 26.6 °F 61% 30.01 in 10.0 mi NNW 12.7 mph 17.3 mph N/A   Overcast
11:51 AM 39.2 °F 32.0 °F 26.6 °F 61% 30.01 in 10.0 mi NW 11.5 mph - N/A   Overcast
12:11 PM 39.2 °F 31.6 °F 24.8 °F 56% 30.01 in 10.0 mi NW 12.7 mph 17.3 mph N/A   Mostly Cloudy
12:51 PM 41.0 °F 33.5 °F 24.8 °F 53% 30.00 in 10.0 mi NW 13.8 mph - N/A   Scattered Clouds
1:11 PM 42.8 °F 35.4 °F 24.8 °F 49% 30.00 in 10.0 mi NNW 15.0 mph 21.9 mph N/A   Scattered Clouds
1:32 PM 42.8 °F 35.4 °F 24.8 °F 49% 29.99 in 10.0 mi NNW 15.0 mph 21.9 mph N/A   Clear
1:51 PM 42.8 °F 38.6 °F 23.0 °F 46% 29.98 in 10.0 mi WNW 6.9 mph 19.6 mph N/A   Clear
2:11 PM 42.8 °F 36.6 °F 21.2 °F 42% 29.99 in 10.0 mi NNW 11.5 mph - N/A   Clear
2:31 PM 44.6 °F 38.4 °F 24.8 °F 46% 29.98 in 10.0 mi WNW 12.7 mph 19.6 mph N/A   Clear
2:51 PM 42.8 °F 36.6 °F 23.0 °F 46% 29.98 in 10.0 mi NW 11.5 mph 21.9 mph N/A   Clear
3:11 PM 42.8 °F 36.2 °F 21.2 °F 42% 29.98 in 10.0 mi NNW 12.7 mph 17.3 mph N/A   Clear
3:31 PM 42.8 °F 35.8 °F 21.2 °F 42% 29.98 in 10.0 mi North 13.8 mph 19.6 mph N/A   Clear
3:51 PM 41.0 °F 32.8 °F 21.2 °F 45% 29.99 in 10.0 mi North 16.1 mph - N/A   Clear
4:11 PM 41.0 °F 34.3 °F 21.2 °F 45% 30.00 in 10.0 mi North 11.5 mph 18.4 mph N/A   Clear
4:31 PM 39.2 °F 30.8 °F 21.2 °F 49% 30.00 in 10.0 mi North 15.0 mph - N/A   Clear
4:51 PM 39.2 °F 32.0 °F 19.4 °F 45% 30.01 in 10.0 mi North 11.5 mph - N/A   Clear
5:11 PM 37.4 °F 29.8 °F 19.4 °F 48% 30.01 in 10.0 mi North 11.5 mph - N/A   Clear
5:31 PM 37.4 °F 29.3 °F 21.2 °F 52% 30.02 in 10.0 mi North 12.7 mph - N/A   Clear
5:51 PM 35.6 °F 28.6 °F 21.2 °F 56% 30.02 in 10.0 mi North 9.2 mph - N/A   Clear
6:12 PM 33.8 °F 26.4 °F 21.2 °F 60% 30.02 in 10.0 mi North 9.2 mph - N/A   Clear
6:31 PM 33.8 °F 27.0 °F 21.2 °F 60% 30.03 in 10.0 mi NNW 8.1 mph - N/A   Clear
6:51 PM 33.8 °F 27.7 °F 21.2 °F 60% 30.02 in 10.0 mi NNW 6.9 mph - N/A   Clear
7:12 PM 30.2 °F 26.7 °F 21.2 °F 69% 30.03 in 10.0 mi NNW 3.5 mph - N/A   Clear
7:31 PM 30.2 °F 26.7 °F 19.4 °F 64% 30.04 in - WNW 3.5 mph - N/A   Clear
7:51 PM 28.4 °F - 19.4 °F 69% 30.05 in - North - - N/A   Clear
8:11 PM 24.8 °F - 19.4 °F 80% 30.04 in 1.0 mi Calm Calm - N/A   Scattered Clouds
8:31 PM 26.6 °F - 19.4 °F 74% 30.04 in 10.0 mi Calm Calm - N/A   Mostly Cloudy
8:51 PM 26.6 °F - 19.4 °F 74% 30.03 in 10.0 mi Calm Calm - N/A   Scattered Clouds
9:11 PM 24.8 °F 20.5 °F 19.4 °F 80% 30.05 in 10.0 mi WNW 3.5 mph - N/A   Mostly Cloudy
9:32 PM 26.6 °F 21.2 °F 19.4 °F 74% 30.05 in 10.0 mi WNW 4.6 mph - N/A   Overcast
9:51 PM 26.6 °F 22.6 °F 19.4 °F 74% 30.05 in 10.0 mi North 3.5 mph - N/A   Mostly Cloudy
10:11 PM 26.6 °F 21.2 °F 19.4 °F 74% 30.05 in 10.0 mi North 4.6 mph - N/A   Scattered Clouds
10:32 PM 26.6 °F 22.6 °F 19.4 °F 74% 30.05 in 10.0 mi NNW 3.5 mph - N/A   Clear
10:51 PM 24.8 °F 20.5 °F 19.4 °F 80% 30.06 in 10.0 mi NNW 3.5 mph - N/A   Clear
11:11 PM 24.8 °F 20.5 °F 19.4 °F 80% 30.06 in 10.0 mi NNW 3.5 mph - N/A   Clear
11:32 PM 24.8 °F 19.1 °F 19.4 °F 80% 30.06 in 10.0 mi North 4.6 mph - N/A   Clear
11:51 PM 26.6 °F 21.2 °F 21.2 °F 80% 30.06 in 10.0 mi North 4.6 mph - N/A   Clear